EGSH

Norwich International Airport

Norwich, United Kingdom
METAR EGSH 181420Z 23013KT 9999 BKN029 21/15 Q1019 NOSIG
Observed Flight Rules
Aug-18 @ 14:20 UTC (32 minutes ago) Marginal Visual Flight Rules
Wind Visibility Clouds
230° at 13 knots 10,000+ meters
  • Broken at 2,900' AGL
Temperatures Readings
Current 21°C / 70°F
Dewpoint 15°C / 59°F
Humidity 69%
Altimeter 30.09" Hg
Pressure 1019 hPa
Elevation 36
METAR EGSH 181420Z 23013KT 9999 BKN029 21/15 Q1019 NOSIG
Observed Flight Rules
Aug-18 @ 14:20 UTC
(32 minutes ago)
MVFR
Wind Visibility
230° at 13 knots 10,000+ meters
Clouds
  • Broken at 2,900' AGL
Temperature Dewpoint
21°C / 70°F 15°C / 59°F
Humidity Altimeter Pressure
69% 30.09" Hg 1019 hPa